Time;durP1;ratioP1;P1;durP2;ratioP2;P2;SDS_P1;SDS_P2;PMS_P1;PMS_P2;Temp;Humidity;BMP_temperature;BMP_pressure;BME280_temperature;BME280_humidity;BME280_pressure;Samples;Min_cycle;Max_cycle;Signal;HPM_P1;HPM_P2
2021/01/06 16:58:02;;;;;;;;;;;5.70;95.70;;;;;;4451401;31;19946;-19
2021/01/06 17:00:59;;;;;;;;;;;4.90;96.10;;;;;;4441804;32;19960;-23
2021/01/06 17:03:44;;;;;;;;;;;4.90;96.60;;;;;;4432795;32;19960;-21
2021/01/06 17:06:34;;;;;;;;;;;4.90;97.00;;;;;;4433664;32;19945;-20
2021/01/06 17:09:22;;;;;;;;;;;4.90;97.20;;;;;;4433097;32;20385;-21
2021/01/06 17:12:32;;;;;;;;;;;4.90;97.30;;;;;;4433793;32;19960;-21
2021/01/06 17:15:43;;;;;;;;;;;4.90;97.40;;;;;;4432812;32;20377;-20
2021/01/06 17:18:33;;;;;;;;;;;4.90;97.50;;;;;;4425208;32;19960;-21
2021/01/06 17:21:24;;;;;;;;;;;5.00;97.50;;;;;;4433434;32;19948;-21
2021/01/06 17:24:22;;;;;;;;;;;5.00;97.50;;;;;;4432885;32;19984;-21
2021/01/06 17:27:14;;;;;;;;;;;5.00;97.50;;;;;;4433905;32;19979;-21
2021/01/06 17:30:03;;;;;;;;;;;5.00;97.90;;;;;;4433273;32;19972;-21
2021/01/06 17:33:08;;;;;;;;;;;5.10;97.60;;;;;;4433007;32;19971;-20
2021/01/06 17:35:53;;;;;;;;;;;5.10;97.50;;;;;;4433072;32;19952;-21
2021/01/06 17:38:45;;;;;;;;;;;5.10;97.50;;;;;;4431886;32;19975;-21
2021/01/06 17:41:38;;;;;;;;;;;5.10;97.50;;;;;;4432928;32;20388;-20
2021/01/06 17:44:25;;;;;;;;;;;5.10;97.50;;;;;;4432458;32;19956;-20
2021/01/06 17:47:11;;;;;;;;;;;5.10;97.50;;;;;;4432747;32;19956;-21
2021/01/06 17:49:57;;;;;;;;;;;5.10;97.50;;;;;;4432414;32;19960;-21
2021/01/06 17:52:43;;;;;;;;;;;5.20;97.40;;;;;;4432557;32;19949;-21
2021/01/06 17:55:31;;;;;;;;;;;5.20;97.40;;;;;;4432486;32;20379;-21
2021/01/06 17:58:16;;;;;;;;;;;5.20;97.40;;;;;;4432466;32;19976;-21
2021/01/06 18:01:03;;;;;;;;;;;5.20;97.40;;;;;;4432934;32;19952;-21
2021/01/06 18:03:48;;;;;;;;;;;5.20;97.40;;;;;;4432375;32;19983;-22
2021/01/06 18:06:35;;;;;;;;;;;5.20;97.30;;;;;;4432668;32;20024;-21
2021/01/06 18:09:21;;;;;;;;;;;5.20;97.30;;;;;;4422072;32;20286;-21
2021/01/06 18:12:09;;;;;;;;;;;5.20;97.30;;;;;;4422455;32;19961;-20
2021/01/06 18:14:57;;;;;;;;;;;5.20;97.30;;;;;;4432103;32;19952;-20
2021/01/06 18:17:43;;;;;;;;;;;5.20;97.30;;;;;;4421445;32;19964;-20
2021/01/06 18:20:28;;;;;;;;;;;5.20;97.30;;;;;;4422104;32;19988;-21
2021/01/06 18:23:21;;;;;;;;;;;5.20;97.30;;;;;;4422079;32;20382;-20
2021/01/06 18:26:06;;;;;;;;;;;5.20;97.30;;;;;;4422140;32;19948;-21
2021/01/06 18:29:07;;;;;;;;;;;5.20;97.30;;;;;;4421843;32;20006;-20
2021/01/06 18:31:52;;;;;;;;;;;5.20;97.20;;;;;;4421708;32;20358;-22
2021/01/06 18:34:36;;;;;;;;;;;5.20;97.30;;;;;;4421774;32;20333;-20
2021/01/06 18:37:24;;;;;;;;;;;5.20;97.20;;;;;;4421703;32;19984;-20
2021/01/06 18:40:11;;;;;;;;;;;5.20;97.10;;;;;;4420916;32;19969;-20
2021/01/06 18:43:09;;;;;;;;;;;5.20;97.10;;;;;;4422050;32;19985;-20
2021/01/06 18:45:54;;;;;;;;;;;5.20;97.10;;;;;;4421547;32;19971;-21
2021/01/06 18:48:39;;;;;;;;;;;5.20;97.10;;;;;;4422082;32;19949;-20
2021/01/06 18:51:42;;;;;;;;;;;5.20;97.10;;;;;;4421437;32;20382;-21
2021/01/06 18:54:28;;;;;;;;;;;5.20;97.10;;;;;;4420983;32;19979;-20
2021/01/06 18:57:15;;;;;;;;;;;5.20;97.00;;;;;;4421246;32;19977;-20
2021/01/06 19:02:56;;;;;;;;;;;5.20;97.00;;;;;;4501618;27;19955;-23
2021/01/06 19:05:46;;;;;;;;;;;5.20;96.90;;;;;;4292501;33;19988;-23
2021/01/06 19:08:32;;;;;;;;;;;5.20;96.90;;;;;;4300254;33;19992;-24
2021/01/06 19:11:17;;;;;;;;;;;5.20;96.90;;;;;;4290251;33;19983;-24
2021/01/06 19:14:03;;;;;;;;;;;5.20;97.00;;;;;;4300691;33;19959;-24
2021/01/06 19:16:48;;;;;;;;;;;5.20;96.90;;;;;;4300171;33;20024;-24
2021/01/06 19:19:32;;;;;;;;;;;5.20;96.90;;;;;;4299744;33;19999;-23
2021/01/06 19:22:17;;;;;;;;;;;5.20;96.80;;;;;;4300132;33;19991;-23
2021/01/06 19:25:10;;;;;;;;;;;5.20;96.80;;;;;;4299826;33;19966;-23
2021/01/06 19:27:56;;;;;;;;;;;5.20;96.90;;;;;;4300340;33;19955;-23
2021/01/06 19:30:44;;;;;;;;;;;5.20;96.80;;;;;;4299981;33;19977;-23
2021/01/06 19:33:37;;;;;;;;;;;5.20;96.80;;;;;;4300283;33;20314;-23
2021/01/06 19:36:24;;;;;;;;;;;5.20;96.80;;;;;;4302308;33;19990;-23
2021/01/06 19:39:10;;;;;;;;;;;5.20;96.80;;;;;;4301928;33;19955;-24
2021/01/06 19:41:56;;;;;;;;;;;5.20;96.80;;;;;;4302004;33;20059;-23
2021/01/06 19:44:42;;;;;;;;;;;5.20;96.80;;;;;;4302311;33;19964;-23
2021/01/06 19:47:31;;;;;;;;;;;5.20;96.80;;;;;;4311076;33;19990;-24
2021/01/06 19:50:17;;;;;;;;;;;5.20;96.80;;;;;;4311377;33;19952;-24
2021/01/06 19:53:15;;;;;;;;;;;5.20;96.80;;;;;;4301778;33;20302;-23
2021/01/06 19:56:01;;;;;;;;;;;5.20;96.80;;;;;;4301558;33;19972;-23
2021/01/06 19:58:47;;;;;;;;;;;5.20;97.00;;;;;;4301702;33;19976;-23
2021/01/06 20:01:33;;;;;;;;;;;5.20;96.80;;;;;;4301398;33;19976;-23
2021/01/06 20:04:21;;;;;;;;;;;5.20;96.80;;;;;;4309663;33;19988;-25
2021/01/06 20:07:10;;;;;;;;;;;5.20;96.70;;;;;;4300576;33;19956;-23
2021/01/06 20:09:55;;;;;;;;;;;5.20;96.80;;;;;;4310955;33;19988;-23
2021/01/06 20:12:48;;;;;;;;;;;5.20;96.70;;;;;;4302009;33;20369;-23
2021/01/06 20:15:36;;;;;;;;;;;5.20;96.70;;;;;;4301863;33;19986;-23
2021/01/06 20:18:21;;;;;;;;;;;5.20;96.60;;;;;;4301884;33;19995;-24
2021/01/06 20:21:07;;;;;;;;;;;5.10;96.50;;;;;;4301865;33;19951;-24
2021/01/06 20:23:52;;;;;;;;;;;5.10;96.60;;;;;;4301580;33;19972;-24
2021/01/06 20:26:38;;;;;;;;;;;5.10;96.50;;;;;;4301950;33;19952;-23
2021/01/06 20:29:24;;;;;;;;;;;5.10;96.60;;;;;;4311004;33;20392;-24
2021/01/06 20:32:10;;;;;;;;;;;5.10;96.60;;;;;;4301499;33;20013;-23
2021/01/06 20:34:56;;;;;;;;;;;5.10;96.60;;;;;;4301716;33;20020;-23
2021/01/06 20:37:41;;;;;;;;;;;5.10;96.60;;;;;;4310936;33;19960;-23
2021/01/06 20:40:26;;;;;;;;;;;5.10;96.60;;;;;;4301578;33;19976;-23
2021/01/06 20:43:11;;;;;;;;;;;5.10;96.60;;;;;;4310914;33;19980;-23
2021/01/06 20:45:56;;;;;;;;;;;5.10;96.50;;;;;;4310964;33;19988;-23
2021/01/06 20:48:41;;;;;;;;;;;5.10;96.40;;;;;;4301504;33;20326;-23
2021/01/06 20:51:26;;;;;;;;;;;5.10;96.50;;;;;;4301537;33;19972;-23
2021/01/06 20:54:15;;;;;;;;;;;5.10;96.50;;;;;;4301606;33;19959;-23
2021/01/06 20:57:00;;;;;;;;;;;5.10;96.60;;;;;;4301374;33;19988;-23
2021/01/06 20:59:55;;;;;;;;;;;5.10;96.50;;;;;;4301543;33;20363;-23
2021/01/06 21:02:40;;;;;;;;;;;5.10;96.50;;;;;;4301254;33;19996;-23
2021/01/06 21:05:25;;;;;;;;;;;5.10;96.40;;;;;;4301378;33;19960;-23
2021/01/06 21:08:11;;;;;;;;;;;5.10;96.40;;;;;;4310564;33;19984;-23
2021/01/06 21:10:57;;;;;;;;;;;5.10;96.40;;;;;;4301403;33;19951;-23
2021/01/06 21:13:42;;;;;;;;;;;5.10;96.40;;;;;;4301347;33;19972;-23
2021/01/06 21:16:27;;;;;;;;;;;5.00;96.30;;;;;;4310435;33;20313;-23
2021/01/06 21:19:12;;;;;;;;;;;5.00;96.30;;;;;;4309625;33;20062;-23
2021/01/06 21:21:57;;;;;;;;;;;5.00;96.20;;;;;;4300942;33;19951;-24
2021/01/06 21:24:42;;;;;;;;;;;5.00;96.30;;;;;;4300950;33;19975;-23
2021/01/06 21:27:28;;;;;;;;;;;5.00;96.30;;;;;;4300773;33;19979;-23
2021/01/06 21:30:14;;;;;;;;;;;5.00;96.30;;;;;;4300837;33;19986;-24
2021/01/06 21:32:59;;;;;;;;;;;5.00;96.30;;;;;;4300949;33;19955;-23
2021/01/06 21:35:45;;;;;;;;;;;5.00;96.40;;;;;;4300822;33;19951;-23
2021/01/06 21:38:30;;;;;;;;;;;5.00;96.40;;;;;;4301208;33;20306;-23
2021/01/06 21:41:19;;;;;;;;;;;5.00;96.30;;;;;;4300702;33;20338;-23
2021/01/06 21:44:05;;;;;;;;;;;5.00;96.70;;;;;;4312107;33;20007;-23
2021/01/06 21:46:49;;;;;;;;;;;5.00;96.30;;;;;;4303885;33;20418;-24
2021/01/06 21:49:36;;;;;;;;;;;5.00;96.30;;;;;;4303574;33;19978;-23
2021/01/06 21:52:22;;;;;;;;;;;5.00;96.30;;;;;;4303473;33;19955;-23
2021/01/06 21:55:07;;;;;;;;;;;4.90;96.20;;;;;;4313116;33;19960;-24
2021/01/06 21:57:54;;;;;;;;;;;5.00;96.30;;;;;;4303599;33;19976;-23
2021/01/06 22:00:41;;;;;;;;;;;4.90;96.30;;;;;;4303636;33;19955;-23
2021/01/06 22:03:25;;;;;;;;;;;5.00;96.30;;;;;;4302976;33;20024;-24
2021/01/06 22:06:17;;;;;;;;;;;4.90;96.30;;;;;;4303586;33;19983;-23
2021/01/06 22:09:02;;;;;;;;;;;4.90;96.30;;;;;;4303492;33;19999;-23
2021/01/06 22:11:48;;;;;;;;;;;5.00;96.40;;;;;;4303167;33;19980;-24
2021/01/06 22:14:33;;;;;;;;;;;4.90;96.30;;;;;;4303200;33;19981;-23
2021/01/06 22:17:18;;;;;;;;;;;5.00;96.30;;;;;;4303215;33;19975;-23
2021/01/06 22:20:03;;;;;;;;;;;5.00;96.30;;;;;;4303086;33;19959;-23
2021/01/06 22:22:48;;;;;;;;;;;5.00;96.70;;;;;;4303070;33;19947;-23
2021/01/06 22:25:34;;;;;;;;;;;5.00;96.40;;;;;;4303101;33;19987;-23
2021/01/06 22:28:19;;;;;;;;;;;5.00;96.40;;;;;;4302933;33;19976;-23
2021/01/06 22:31:05;;;;;;;;;;;5.00;96.40;;;;;;4303010;33;20367;-23
2021/01/06 22:33:50;;;;;;;;;;;5.00;96.40;;;;;;4303187;33;19975;-23
2021/01/06 22:36:35;;;;;;;;;;;5.00;96.40;;;;;;4303149;33;19988;-23
2021/01/06 22:39:21;;;;;;;;;;;5.00;96.40;;;;;;4302687;33;19984;-23
2021/01/06 22:42:06;;;;;;;;;;;5.00;96.40;;;;;;4302859;33;19975;-23
2021/01/06 22:44:51;;;;;;;;;;;5.00;96.40;;;;;;4312484;33;19984;-23
2021/01/06 22:47:36;;;;;;;;;;;5.00;96.40;;;;;;4303087;33;19972;-23
2021/01/06 22:50:21;;;;;;;;;;;4.90;96.40;;;;;;4302768;33;19975;-23
2021/01/06 22:53:07;;;;;;;;;;;4.90;96.40;;;;;;4302640;33;20330;-23
2021/01/06 22:55:52;;;;;;;;;;;5.00;96.40;;;;;;4288477;33;20369;-24
2021/01/06 22:58:38;;;;;;;;;;;5.00;96.40;;;;;;4288361;33;20335;-23
2021/01/06 23:01:24;;;;;;;;;;;5.00;96.40;;;;;;4297370;33;19955;-24
2021/01/06 23:04:09;;;;;;;;;;;5.00;96.40;;;;;;4287964;33;19976;-25
2021/01/06 23:06:54;;;;;;;;;;;5.00;96.40;;;;;;4288165;33;19984;-23
2021/01/06 23:09:40;;;;;;;;;;;5.00;96.40;;;;;;4288141;33;19964;-24
2021/01/06 23:12:25;;;;;;;;;;;5.00;96.40;;;;;;4288214;33;19987;-24
2021/01/06 23:15:12;;;;;;;;;;;5.00;96.80;;;;;;4287751;33;19980;-24
2021/01/06 23:17:57;;;;;;;;;;;5.00;96.40;;;;;;4288091;33;19951;-23
2021/01/06 23:20:42;;;;;;;;;;;5.00;96.40;;;;;;4288257;33;19956;-23
2021/01/06 23:23:28;;;;;;;;;;;5.00;96.40;;;;;;4288299;33;20346;-23
2021/01/06 23:26:13;;;;;;;;;;;5.00;96.40;;;;;;4288136;33;20009;-23
2021/01/06 23:28:58;;;;;;;;;;;4.90;96.60;;;;;;4288142;33;19976;-23
2021/01/06 23:31:43;;;;;;;;;;;4.90;96.20;;;;;;4302111;33;19979;-23
2021/01/06 23:34:28;;;;;;;;;;;4.90;96.30;;;;;;4302425;33;19950;-23
2021/01/06 23:37:13;;;;;;;;;;;4.90;96.30;;;;;;4302446;33;19951;-23
2021/01/06 23:39:58;;;;;;;;;;;4.90;96.30;;;;;;4302274;33;19980;-23
2021/01/06 23:42:43;;;;;;;;;;;4.90;96.20;;;;;;4311707;33;19979;-23
2021/01/06 23:45:32;;;;;;;;;;;4.90;96.30;;;;;;4302388;33;19983;-23
2021/01/06 23:48:17;;;;;;;;;;;4.90;96.30;;;;;;4302361;33;19976;-24
2021/01/06 23:51:04;;;;;;;;;;;4.90;96.30;;;;;;4302349;33;19967;-24
2021/01/06 23:53:49;;;;;;;;;;;4.90;96.30;;;;;;4302179;33;20379;-23
2021/01/06 23:56:37;;;;;;;;;;;4.90;96.20;;;;;;4302135;33;19987;-23
2021/01/06 23:59:22;;;;;;;;;;;4.90;96.20;;;;;;4302261;33;19995;-23
